createdAt,value
2023-02-28T00:00:53.204Z,58.25
2023-02-28T00:03:19.733Z,58.49
2023-02-28T00:05:46.535Z,59.17
2023-02-28T00:08:14.115Z,58.82
2023-02-28T00:10:40.623Z,58.17
2023-02-28T00:13:08.164Z,57.89
2023-02-28T00:15:34.729Z,57.77
2023-02-28T00:18:01.358Z,57.46
2023-02-28T00:20:27.909Z,57.82
2023-02-28T00:22:55.017Z,57.81
2023-02-28T00:25:24.515Z,58.36
2023-02-28T00:27:50.985Z,58.14
2023-02-28T00:30:19.901Z,58.13
2023-02-28T00:32:46.432Z,58.53
2023-02-28T00:35:13.482Z,58.18
2023-02-28T00:37:40.081Z,58.68
2023-02-28T00:40:07.832Z,58.33
2023-02-28T00:42:37.325Z,58.35
2023-02-28T00:45:09.056Z,57.67
2023-02-28T00:47:35.859Z,58.74
2023-02-28T00:50:03.112Z,58.49
2023-02-28T00:52:29.644Z,57.94
2023-02-28T00:54:56.258Z,58.17
2023-02-28T00:57:23.181Z,57.86
2023-02-28T00:59:49.704Z,58.22
2023-02-28T01:02:16.494Z,58.17
2023-02-28T01:04:43.076Z,58.26
2023-02-28T01:07:10.197Z,58.22
2023-02-28T01:09:36.640Z,58.40
2023-02-28T01:12:03.210Z,58.31
2023-02-28T01:14:29.733Z,58.34
2023-02-28T01:16:56.116Z,58.56
2023-02-28T01:19:22.560Z,59.64
2023-02-28T01:21:49.016Z,60.24
2023-02-28T01:24:15.647Z,60.38
2023-02-28T01:26:42.342Z,60.56
2023-02-28T01:29:08.842Z,60.26
2023-02-28T01:31:35.708Z,60.53
2023-02-28T01:34:02.603Z,61.34
2023-02-28T01:36:29.149Z,61.43
2023-02-28T01:38:55.579Z,61.33
2023-02-28T01:41:28.899Z,61.50
2023-02-28T01:44:04.076Z,61.88
2023-02-28T01:46:35.952Z,62.12
2023-02-28T01:49:18.763Z,61.66
2023-02-28T01:51:51.819Z,61.84
2023-02-28T01:54:23.557Z,62.02
2023-02-28T01:57:12.968Z,62.12
2023-02-28T01:59:51.053Z,61.52
2023-02-28T02:02:19.774Z,61.28
2023-02-28T02:04:54.523Z,61.80
2023-02-28T02:07:21.391Z,61.83
2023-02-28T02:09:47.863Z,62.33
2023-02-28T02:12:45.144Z,62.69
2023-02-28T02:15:17.086Z,62.10
2023-02-28T02:17:48.584Z,62.81
2023-02-28T02:20:41.096Z,62.96
2023-02-28T02:23:25.537Z,61.98
2023-02-28T02:26:12.977Z,62.41
2023-02-28T02:29:11.154Z,62.72
2023-02-28T02:31:56.355Z,62.22
2023-02-28T02:34:57.962Z,62.63
2023-02-28T02:37:29.868Z,62.44
2023-02-28T02:40:05.365Z,62.84
2023-02-28T02:42:51.827Z,62.54
2023-02-28T02:45:37.300Z,63.05
2023-02-28T02:48:07.549Z,62.30
2023-02-28T02:50:44.116Z,62.22
2023-02-28T02:53:13.490Z,61.98
2023-02-28T02:55:43.952Z,62.08
2023-02-28T02:58:15.761Z,62.03
2023-02-28T03:00:47.630Z,62.43
2023-02-28T03:03:18.714Z,62.39
2023-02-28T03:05:51.935Z,63.08
2023-02-28T03:08:18.964Z,62.76
2023-02-28T03:10:47.661Z,63.03
2023-02-28T03:13:35.677Z,63.54
2023-02-28T03:16:35.581Z,63.58
2023-02-28T03:19:26.689Z,63.36
2023-02-28T03:22:11.190Z,63.38
2023-02-28T03:24:43.716Z,64.22
2023-02-28T03:27:17.516Z,64.18
2023-02-28T03:29:51.736Z,64.80
2023-02-28T03:32:26.606Z,64.75
2023-02-28T03:35:14.726Z,65.25
2023-02-28T03:37:44.875Z,65.21
2023-02-28T03:40:19.049Z,65.88
2023-02-28T03:42:59.886Z,65.88
2023-02-28T03:45:30.849Z,65.53
2023-02-28T03:48:19.096Z,65.67
2023-02-28T03:50:48.915Z,65.31
2023-02-28T03:53:30.068Z,65.13
2023-02-28T03:56:10.429Z,65.92
2023-02-28T03:59:02.234Z,65.40
2023-02-28T04:01:37.652Z,65.58
2023-02-28T04:04:05.212Z,65.53
2023-02-28T04:06:33.445Z,65.20
2023-02-28T04:09:00.820Z,65.57
2023-02-28T04:11:39.065Z,66.16
2023-02-28T04:14:08.337Z,66.33
2023-02-28T04:16:37.543Z,66.20
2023-02-28T04:19:06.298Z,65.96
2023-02-28T04:21:41.796Z,67.23
2023-02-28T04:24:14.965Z,67.06
2023-02-28T04:26:44.570Z,67.56
2023-02-28T04:29:13.374Z,67.56
2023-02-28T04:31:40.430Z,67.79
2023-02-28T04:34:06.911Z,68.56
2023-02-28T04:36:33.722Z,68.79
2023-02-28T04:39:00.120Z,69.26
2023-02-28T04:41:29.635Z,69.54
2023-02-28T04:43:58.508Z,69.76
2023-02-28T04:46:25.152Z,69.90
2023-02-28T04:48:51.640Z,69.58
2023-02-28T04:51:19.651Z,69.92
2023-02-28T04:53:47.026Z,70.02
2023-02-28T04:56:16.759Z,70.76
2023-02-28T04:58:43.896Z,70.03
2023-02-28T05:01:28.990Z,70.96
2023-02-28T05:03:57.685Z,71.05
2023-02-28T05:06:26.621Z,71.27
2023-02-28T05:08:54.055Z,71.21
2023-02-28T05:11:21.995Z,71.44
2023-02-28T05:13:48.933Z,71.57
2023-02-28T05:16:16.325Z,71.85
2023-02-28T05:18:43.076Z,72.27
2023-02-28T05:21:38.985Z,73.45
2023-02-28T05:24:08.866Z,73.06
2023-02-28T05:26:37.377Z,72.74
2023-02-28T05:29:04.032Z,72.88
2023-02-28T05:31:30.831Z,73.07
2023-02-28T05:33:57.682Z,73.28
2023-02-28T05:36:24.670Z,73.30
2023-02-28T05:38:51.976Z,73.49
2023-02-28T05:41:20.854Z,74.16
2023-02-28T05:43:48.157Z,74.00
2023-02-28T05:46:15.005Z,74.46
2023-02-28T05:48:42.787Z,74.82
2023-02-28T05:51:09.793Z,75.08
2023-02-28T05:53:36.802Z,75.23
2023-02-28T05:56:04.123Z,75.29
2023-02-28T05:58:31.991Z,75.41
2023-02-28T06:01:00.170Z,75.95
2023-02-28T06:03:27.608Z,76.29
2023-02-28T06:05:54.442Z,76.32
2023-02-28T06:08:21.239Z,76.79
2023-02-28T06:10:47.722Z,76.61
2023-02-28T06:13:14.229Z,77.36
2023-02-28T06:15:40.743Z,77.24
2023-02-28T06:18:07.906Z,77.59
2023-02-28T06:20:35.431Z,77.71
2023-02-28T06:23:01.918Z,77.76
2023-02-28T06:25:28.799Z,77.82
2023-02-28T06:27:56.219Z,78.08
2023-02-28T06:30:26.250Z,77.98
2023-02-28T06:32:53.088Z,78.07
2023-02-28T06:35:19.626Z,78.14
2023-02-28T06:37:46.138Z,78.33
2023-02-28T06:40:13.968Z,78.64
2023-02-28T06:42:40.486Z,78.47
2023-02-28T06:45:10.271Z,79.20
2023-02-28T06:47:38.968Z,79.58
2023-02-28T06:50:06.681Z,79.56
2023-02-28T06:52:33.437Z,79.37
2023-02-28T06:55:02.879Z,79.78
2023-02-28T06:57:34.494Z,80.03
2023-02-28T07:00:02.664Z,79.59
2023-02-28T07:02:29.311Z,79.71
2023-02-28T07:04:55.800Z,80.09
2023-02-28T07:07:22.374Z,80.13
2023-02-28T07:09:48.836Z,80.75
2023-02-28T07:12:15.282Z,80.89
2023-02-28T07:14:41.861Z,81.49
2023-02-28T07:17:10.018Z,81.62
2023-02-28T07:19:36.507Z,81.83
2023-02-28T07:22:03.841Z,82.35
2023-02-28T07:24:30.416Z,82.41
2023-02-28T07:26:57.479Z,82.89
2023-02-28T07:29:24.009Z,82.95
2023-02-28T07:31:54.069Z,82.73
2023-02-28T07:34:21.034Z,82.89
2023-02-28T07:36:47.482Z,82.67
2023-02-28T07:39:13.902Z,83.55
2023-02-28T07:41:44.256Z,83.71
2023-02-28T07:44:11.964Z,83.93
2023-02-28T07:46:38.821Z,84.00
2023-02-28T07:49:05.681Z,83.59
2023-02-28T07:51:32.364Z,83.47
2023-02-28T07:53:59.106Z,82.56
2023-02-28T07:56:25.521Z,81.67
2023-02-28T07:58:51.948Z,80.76
2023-02-28T08:01:20.398Z,79.35
2023-02-28T08:03:46.882Z,78.88
2023-02-28T08:06:19.221Z,77.97
2023-02-28T08:08:46.104Z,77.00
2023-02-28T08:11:12.582Z,76.48
2023-02-28T08:13:38.996Z,75.43
2023-02-28T08:16:05.810Z,74.28
2023-02-28T08:18:33.405Z,73.71
2023-02-28T08:21:00.222Z,73.01
2023-02-28T08:23:26.674Z,72.56
2023-02-28T08:25:57.301Z,71.68
2023-02-28T08:28:26.992Z,69.23
2023-02-28T08:30:53.711Z,68.51
2023-02-28T08:33:20.386Z,67.84
2023-02-28T08:35:46.938Z,67.36
2023-02-28T08:38:16.448Z,67.09
2023-02-28T08:40:43.669Z,66.38
2023-02-28T08:43:10.395Z,65.97
2023-02-28T08:45:37.130Z,64.55
2023-02-28T08:48:03.913Z,64.63
2023-02-28T08:50:30.392Z,63.93
2023-02-28T08:52:56.790Z,61.68
2023-02-28T08:55:23.381Z,62.01
2023-02-28T08:57:49.797Z,60.87
2023-02-28T09:00:16.551Z,60.98
2023-02-28T09:02:44.607Z,59.98
2023-02-28T09:05:11.041Z,59.99
2023-02-28T09:07:37.616Z,59.17
2023-02-28T09:10:04.578Z,56.95
2023-02-28T09:12:35.447Z,56.97
2023-02-28T09:15:02.443Z,55.67
2023-02-28T09:17:30.786Z,55.87
2023-02-28T09:19:58.031Z,55.97
2023-02-28T09:22:24.697Z,53.94
2023-02-28T09:24:51.081Z,53.06
2023-02-28T09:27:17.512Z,53.20
2023-02-28T09:29:44.136Z,52.31
2023-02-28T09:32:10.622Z,51.02
2023-02-28T09:34:38.008Z,52.07
2023-02-28T09:37:04.774Z,49.92
2023-02-28T09:39:31.949Z,48.36
2023-02-28T09:41:58.992Z,48.17
2023-02-28T09:44:40.412Z,47.13
2023-02-28T09:47:30.037Z,48.14
2023-02-28T09:49:59.579Z,46.85
2023-02-28T09:52:31.428Z,46.31
2023-02-28T09:55:12.832Z,46.36
2023-02-28T09:57:42.191Z,45.89
2023-02-28T10:00:20.347Z,46.17
2023-02-28T10:03:19.217Z,46.02
2023-02-28T10:06:22.756Z,47.42
2023-02-28T10:09:14.832Z,43.37
2023-02-28T10:11:42.305Z,42.61
2023-02-28T10:14:15.316Z,42.37
2023-02-28T10:16:48.771Z,41.78
2023-02-28T10:19:26.921Z,42.48
2023-02-28T10:22:00.138Z,40.56
2023-02-28T10:24:29.638Z,39.36
2023-02-28T10:27:02.752Z,39.69
2023-02-28T10:29:33.696Z,39.46
2023-02-28T10:32:09.332Z,38.13
2023-02-28T10:34:35.762Z,37.54
2023-02-28T10:37:14.570Z,37.79
2023-02-28T10:39:48.009Z,37.81
2023-02-28T10:42:29.719Z,36.12
2023-02-28T10:45:13.373Z,36.73
2023-02-28T10:47:58.978Z,37.16
2023-02-28T10:50:28.601Z,36.85
2023-02-28T10:52:55.812Z,36.17
2023-02-28T10:55:26.106Z,36.17
2023-02-28T10:57:53.480Z,35.19
2023-02-28T11:00:23.520Z,34.68
2023-02-28T11:02:49.967Z,34.96
2023-02-28T11:05:30.876Z,36.50
2023-02-28T11:08:05.615Z,35.16
2023-02-28T11:10:35.706Z,35.64
2023-02-28T11:13:02.556Z,40.15
2023-02-28T11:15:34.219Z,34.95
2023-02-28T11:18:27.016Z,36.19
2023-02-28T11:20:57.381Z,34.55
2023-02-28T11:23:28.565Z,34.25
2023-02-28T11:25:59.195Z,35.14
2023-02-28T11:28:32.563Z,34.61
2023-02-28T11:31:25.604Z,35.24
2023-02-28T11:33:56.866Z,35.61
2023-02-28T11:36:29.321Z,34.87
2023-02-28T11:39:02.573Z,33.06
2023-02-28T11:41:40.849Z,32.97
2023-02-28T11:44:19.795Z,32.29
2023-02-28T11:47:01.721Z,33.62
2023-02-28T11:49:53.322Z,33.47
2023-02-28T11:52:46.437Z,33.04
2023-02-28T11:55:24.646Z,31.96
2023-02-28T11:57:55.315Z,32.50
2023-02-28T12:00:31.752Z,32.51
2023-02-28T12:03:18.222Z,32.32
2023-02-28T12:05:55.822Z,32.75
2023-02-28T12:08:45.649Z,34.42
2023-02-28T12:11:46.103Z,34.10
2023-02-28T12:14:24.429Z,32.89
2023-02-28T12:17:07.908Z,32.37
2023-02-28T12:19:45.815Z,32.13
2023-02-28T12:22:32.029Z,33.30
2023-02-28T12:25:07.729Z,32.26
2023-02-28T12:27:39.743Z,31.63
2023-02-28T12:30:19.364Z,31.98
2023-02-28T12:32:59.000Z,31.27
2023-02-28T12:35:34.174Z,31.51
2023-02-28T12:38:14.258Z,31.42
2023-02-28T12:41:06.908Z,31.86
2023-02-28T12:43:42.791Z,31.15
2023-02-28T12:46:24.464Z,31.73
2023-02-28T12:48:56.643Z,31.13
2023-02-28T12:51:24.765Z,31.08
2023-02-28T12:54:18.831Z,31.37
2023-02-28T12:56:45.220Z,31.09
2023-02-28T12:59:18.236Z,31.33
2023-02-28T13:02:12.969Z,31.78
2023-02-28T13:05:16.834Z,32.20
2023-02-28T13:08:01.646Z,33.78
2023-02-28T13:10:50.984Z,32.34
2023-02-28T13:13:20.431Z,31.40
2023-02-28T13:16:08.824Z,33.44
2023-02-28T13:18:42.758Z,32.40
2023-02-28T13:21:22.358Z,32.09
2023-02-28T13:24:04.070Z,33.14
2023-02-28T13:26:36.515Z,32.30
2023-02-28T13:29:11.923Z,33.24
2023-02-28T13:32:06.717Z,34.20
2023-02-28T13:34:34.982Z,32.36
2023-02-28T13:37:22.960Z,33.32
2023-02-28T13:40:08.202Z,33.80
2023-02-28T13:42:48.322Z,32.87
2023-02-28T13:45:14.652Z,33.03
2023-02-28T13:47:44.448Z,33.14
2023-02-28T13:50:27.324Z,34.23
2023-02-28T13:53:12.379Z,33.70
2023-02-28T13:56:06.733Z,33.46
2023-02-28T13:58:59.483Z,34.33
2023-02-28T14:01:47.209Z,32.77
2023-02-28T14:04:43.194Z,33.02
2023-02-28T14:07:17.930Z,33.57
2023-02-28T14:09:53.302Z,32.01
2023-02-28T14:12:55.658Z,33.31
2023-02-28T14:15:28.378Z,32.98
2023-02-28T14:17:57.186Z,32.59
2023-02-28T14:20:27.644Z,32.76
2023-02-28T14:23:17.370Z,33.90
2023-02-28T14:25:53.855Z,33.98
2023-02-28T14:28:27.375Z,33.99
2023-02-28T14:31:08.858Z,33.74
2023-02-28T14:33:48.337Z,32.75
2023-02-28T14:36:23.944Z,32.91
2023-02-28T14:38:57.819Z,33.37
2023-02-28T14:41:39.750Z,32.67
2023-02-28T14:44:18.584Z,32.55
2023-02-28T14:46:47.031Z,31.79
2023-02-28T14:49:19.362Z,32.53
2023-02-28T14:51:48.544Z,31.99
2023-02-28T14:54:17.550Z,32.14
2023-02-28T14:56:44.055Z,31.64
2023-02-28T14:59:36.965Z,32.79
2023-02-28T15:02:17.386Z,32.31
2023-02-28T15:04:43.930Z,32.45
2023-02-28T15:07:16.469Z,32.69
2023-02-28T15:09:43.087Z,32.77
2023-02-28T15:12:15.870Z,32.90
2023-02-28T15:14:45.307Z,33.00
2023-02-28T15:17:24.076Z,33.63
2023-02-28T15:19:54.012Z,33.02
2023-02-28T15:22:36.754Z,33.28
2023-02-28T15:25:05.078Z,33.57
2023-02-28T15:27:34.120Z,33.89
2023-02-28T15:30:06.699Z,33.92
2023-02-28T15:32:42.226Z,34.39
2023-02-28T15:35:21.708Z,33.59
2023-02-28T15:37:54.467Z,33.24
2023-02-28T15:40:26.862Z,34.86
2023-02-28T15:43:04.540Z,33.97
2023-02-28T15:45:56.232Z,33.79
2023-02-28T15:48:33.576Z,33.49
2023-02-28T15:51:18.395Z,33.79
2023-02-28T15:53:55.352Z,32.32
2023-02-28T15:56:26.437Z,32.27
2023-02-28T15:58:58.582Z,32.72
2023-02-28T16:01:45.478Z,33.27
2023-02-28T16:04:18.413Z,31.92
2023-02-28T16:07:06.147Z,32.61
2023-02-28T16:09:34.964Z,33.36
2023-02-28T16:12:03.516Z,33.72
2023-02-28T16:14:31.759Z,33.89
2023-02-28T16:17:05.529Z,35.37
2023-02-28T16:19:33.892Z,35.37
2023-02-28T16:22:02.017Z,36.00
2023-02-28T16:24:28.689Z,37.21
2023-02-28T16:26:56.827Z,36.71
2023-02-28T16:29:28.060Z,37.13
2023-02-28T16:31:55.050Z,37.41
2023-02-28T16:34:22.288Z,38.08
2023-02-28T16:36:49.567Z,38.52
2023-02-28T16:39:15.983Z,39.13
2023-02-28T16:41:46.842Z,39.59
2023-02-28T16:44:34.698Z,40.68
2023-02-28T16:47:02.436Z,40.96
2023-02-28T16:49:30.057Z,41.61
2023-02-28T16:51:56.612Z,41.97
2023-02-28T16:54:23.228Z,42.86
2023-02-28T16:56:50.593Z,43.19
2023-02-28T16:59:22.312Z,43.64
2023-02-28T17:01:49.198Z,44.57
2023-02-28T17:04:16.606Z,44.92
2023-02-28T17:06:43.033Z,44.38
2023-02-28T17:09:17.201Z,45.44
2023-02-28T17:11:43.794Z,45.64
2023-02-28T17:14:10.257Z,45.88
2023-02-28T17:16:40.820Z,46.17
2023-02-28T17:19:11.869Z,46.35
2023-02-28T17:21:38.750Z,46.54
2023-02-28T17:24:05.907Z,48.22
2023-02-28T17:26:33.078Z,48.07
2023-02-28T17:28:59.706Z,48.67
2023-02-28T17:31:27.761Z,49.41
2023-02-28T17:33:56.067Z,49.87
2023-02-28T17:36:25.629Z,50.64
2023-02-28T17:38:54.070Z,50.31
2023-02-28T17:41:20.533Z,50.53
2023-02-28T17:43:46.944Z,51.16
2023-02-28T17:46:22.664Z,51.62
2023-02-28T17:48:50.419Z,52.14
2023-02-28T17:51:18.796Z,52.16
2023-02-28T17:53:45.634Z,52.82
2023-02-28T17:56:14.639Z,53.42
2023-02-28T17:58:41.055Z,53.34
2023-02-28T18:01:07.778Z,54.28
2023-02-28T18:03:34.505Z,54.77
2023-02-28T18:06:01.577Z,55.01
2023-02-28T18:08:28.009Z,55.58
2023-02-28T18:10:54.537Z,55.33
2023-02-28T18:13:20.978Z,55.78
2023-02-28T18:15:48.445Z,55.56
2023-02-28T18:18:16.640Z,56.11
2023-02-28T18:20:43.356Z,56.17
2023-02-28T18:23:10.452Z,56.75
2023-02-28T18:25:38.646Z,57.00
2023-02-28T18:28:05.651Z,57.47
2023-02-28T18:30:37.331Z,57.63
2023-02-28T18:33:04.626Z,57.21
2023-02-28T18:35:37.559Z,57.73
2023-02-28T18:38:22.471Z,58.02
2023-02-28T18:41:01.031Z,58.45
2023-02-28T18:43:32.531Z,58.38
2023-02-28T18:46:04.615Z,58.54
2023-02-28T18:48:31.023Z,58.47
2023-02-28T18:50:57.615Z,59.55
2023-02-28T18:53:24.139Z,59.84
2023-02-28T18:55:50.548Z,60.04
2023-02-28T18:58:16.999Z,60.67
2023-02-28T19:00:44.565Z,60.63
2023-02-28T19:03:12.728Z,60.76
2023-02-28T19:05:39.851Z,61.50
2023-02-28T19:08:06.285Z,61.82
2023-02-28T19:10:33.417Z,61.82
2023-02-28T19:12:59.995Z,62.29
2023-02-28T19:15:26.732Z,62.75
2023-02-28T19:17:53.136Z,63.14
2023-02-28T19:20:19.804Z,63.15
2023-02-28T19:22:46.436Z,63.43
2023-02-28T19:25:12.829Z,63.99
2023-02-28T19:27:39.401Z,64.06
2023-02-28T19:30:07.399Z,64.22
2023-02-28T19:32:33.917Z,63.69
2023-02-28T19:35:00.745Z,64.48
2023-02-28T19:37:27.133Z,64.76
2023-02-28T19:39:56.865Z,64.51
2023-02-28T19:42:23.354Z,64.61
2023-02-28T19:44:49.752Z,65.17
2023-02-28T19:47:16.513Z,65.32
2023-02-28T19:49:42.998Z,65.17
2023-02-28T19:52:13.307Z,65.72
2023-02-28T19:54:42.230Z,65.75
2023-02-28T19:57:08.681Z,66.24
2023-02-28T19:59:39.226Z,66.13
2023-02-28T20:02:14.239Z,65.87
2023-02-28T20:04:40.817Z,66.35
2023-02-28T20:07:07.336Z,66.68
2023-02-28T20:09:33.944Z,67.62
2023-02-28T20:12:00.899Z,67.69
2023-02-28T20:14:27.643Z,67.73
2023-02-28T20:16:55.953Z,68.12
2023-02-28T20:19:23.596Z,67.73
2023-02-28T20:21:50.026Z,68.01
2023-02-28T20:24:16.647Z,67.92
2023-02-28T20:26:43.228Z,68.12
2023-02-28T20:29:09.717Z,68.86
2023-02-28T20:31:39.820Z,68.57
2023-02-28T20:34:06.516Z,68.71
2023-02-28T20:36:33.138Z,68.76
2023-02-28T20:39:00.474Z,69.10
2023-02-28T20:41:27.692Z,69.19
2023-02-28T20:43:59.122Z,68.82
2023-02-28T20:46:26.162Z,69.22
2023-02-28T20:48:53.092Z,69.00
2023-02-28T20:51:19.958Z,69.03
2023-02-28T20:53:46.452Z,69.18
2023-02-28T20:56:20.756Z,69.35
2023-02-28T20:58:48.821Z,69.36
2023-02-28T21:01:16.821Z,69.58
2023-02-28T21:03:48.892Z,69.88
2023-02-28T21:06:17.278Z,69.68
2023-02-28T21:08:44.881Z,69.70
2023-02-28T21:11:14.089Z,70.06
2023-02-28T21:13:42.014Z,69.65
2023-02-28T21:16:11.814Z,69.96
2023-02-28T21:18:38.505Z,69.96
2023-02-28T21:21:07.708Z,70.22
2023-02-28T21:23:34.203Z,70.35
2023-02-28T21:26:10.164Z,70.90
2023-02-28T21:28:37.888Z,70.72
2023-02-28T21:31:09.147Z,70.61
2023-02-28T21:33:35.895Z,70.97
2023-02-28T21:36:07.891Z,71.25
2023-02-28T21:38:35.088Z,70.92
2023-02-28T21:41:16.622Z,71.71
2023-02-28T21:43:44.375Z,71.29
2023-02-28T21:46:14.398Z,71.73
2023-02-28T21:48:43.353Z,71.51
2023-02-28T21:51:14.168Z,72.11
2023-02-28T21:53:41.315Z,72.03
2023-02-28T21:56:15.396Z,72.58
2023-02-28T21:58:42.378Z,72.68
2023-02-28T22:01:17.897Z,72.66
2023-02-28T22:03:45.292Z,72.82
2023-02-28T22:06:14.594Z,72.60
2023-02-28T22:08:42.652Z,72.80
2023-02-28T22:11:10.475Z,72.84
2023-02-28T22:13:37.921Z,72.71
2023-02-28T22:16:12.971Z,73.42
2023-02-28T22:18:40.847Z,72.89
2023-02-28T22:21:10.281Z,72.79
2023-02-28T22:23:41.259Z,72.91
2023-02-28T22:26:10.412Z,73.05
2023-02-28T22:28:37.505Z,72.88
2023-02-28T22:31:31.030Z,73.04
2023-02-28T22:34:00.509Z,72.83
2023-02-28T22:36:28.374Z,72.99
2023-02-28T22:38:55.277Z,72.92
2023-02-28T22:41:23.679Z,73.09
2023-02-28T22:43:53.330Z,73.02
2023-02-28T22:46:20.503Z,73.55
2023-02-28T22:48:48.694Z,73.64
2023-02-28T22:51:18.567Z,74.22
2023-02-28T22:53:48.500Z,74.91
2023-02-28T22:56:17.401Z,75.06
2023-02-28T22:58:45.492Z,75.36
2023-02-28T23:01:16.718Z,75.54
2023-02-28T23:03:43.823Z,75.21
2023-02-28T23:06:21.189Z,75.41
2023-02-28T23:08:48.006Z,74.96
2023-02-28T23:11:24.318Z,74.86
2023-02-28T23:14:00.161Z,74.23
2023-02-28T23:16:31.740Z,74.31
2023-02-28T23:19:01.794Z,74.59
2023-02-28T23:21:28.374Z,74.46
2023-02-28T23:23:55.621Z,74.18
2023-02-28T23:26:22.913Z,74.01
2023-02-28T23:28:49.872Z,74.36
2023-02-28T23:31:16.370Z,74.65
2023-02-28T23:33:42.884Z,74.67
2023-02-28T23:36:11.721Z,74.31
2023-02-28T23:38:39.807Z,74.40
2023-02-28T23:41:10.837Z,74.79
2023-02-28T23:43:37.669Z,74.87
2023-02-28T23:46:04.919Z,74.36
2023-02-28T23:48:32.015Z,74.53
2023-02-28T23:51:03.786Z,74.59
2023-02-28T23:53:31.363Z,74.19
2023-02-28T23:55:57.849Z,74.28
2023-02-28T23:58:24.407Z,73.82
